Latest Weather Observations for Hobart Airport

IDT60801

Issued at 9:05 pm EDT Saturday 22 November 2014 (issued every 30 minutes, with the page automatically refreshed every 10 minutes)

About weather observations | Map of weather stations | Latest weather observations for TAS | Other Formats
Station Details ID: 094008 Name: HOBART AIRPORT Lat: -42.83 Lon: 147.50 Height: 4.0 m
Data from the previous 72 hours. | See also: Recent months at Hobart Airport
Date/Time
EDT
Temp
°C
App
Temp
°C
Dew
Point
Rel
Hum
%
Delta-T
°C
Wind Press
QNH
hPa
Press
MSL
hPa
Rain
since 9 am
mm
Dir
 
Spd
km/h
Gust
km/h
Spd
kts
Gust
kts
22/08:30pm 16.9 15.3 11.6 71 2.9 SSE 11 15 6 8 1004.0 1004.0 0.2
22/08:00pm 17.4 15.8 11.6 69 3.2 SSE 11 15 6 8 1003.9 1003.9 0.2
22/07:30pm 17.8 17.0 11.6 67 3.4 SSE 7 9 4 5 1003.8 1003.7 0.2
22/07:00pm 17.0 15.7 12.5 75 2.5 SSE 11 13 6 7 1003.5 1003.4 0.2
22/06:30pm 17.0 13.8 11.3 69 3.1 SSE 19 26 10 14 1003.1 1003.0 0.2
22/06:00pm 17.9 14.4 10.9 63 3.8 SSE 20 26 11 14 1003.1 1003.0 0.2
22/05:30pm 19.8 17.9 11.9 60 4.4 SE 13 17 7 9 1003.3 1003.2 0.2
22/05:00pm 21.6 20.7 10.7 50 6.0 SW 6 11 3 6 1003.2 1003.1 0.2
22/04:30pm 21.8 18.8 9.4 45 6.7 W 15 17 8 9 1003.3 1003.2 0.2
22/04:00pm 22.0 20.3 8.2 41 7.3 NNE 7 11 4 6 1003.1 1003.0 0.2
22/03:30pm 22.1 18.9 8.6 42 7.2 NNE 15 24 8 13 1003.5 1003.4 0.2
22/03:00pm 22.8 20.8 8.8 40 7.5 N 9 17 5 9 1003.7 1003.6 0.2
22/02:30pm 22.8 18.9 7.0 36 8.2 WNW 17 20 9 11 1004.1 1004.1 0.2
22/02:00pm 23.2 15.9 7.1 35 8.4 WNW 35 50 19 27 1004.3 1004.3 0.2
22/01:49pm 24.9 19.2 8.4 35 8.9 WNW 28 48 15 26 1004.4 1004.4 0.2
22/01:30pm 23.9 20.0 8.6 37 8.2 WNW 19 26 10 14 1004.8 1004.8 0.2
22/01:00pm 21.6 16.7 7.0 39 7.5 NW 22 28 12 15 1005.4 1005.4 0.2
22/12:30pm 21.5 15.5 6.9 38 7.5 WNW 28 46 15 25 1005.5 1005.5 0.2
22/12:20pm 21.6 15.5 6.5 37 7.7 WNW 28 50 15 27 1005.5 1005.5 0.2
22/12:00pm 24.0 19.0 6.4 32 9.1 NW 22 43 12 23 1005.3 1005.3 0.2
22/11:30am 22.0 16.9 6.0 35 8.1 NW 22 32 12 17 1005.5 1005.5 0.0
22/11:00am 21.1 17.3 6.0 37 7.6 N 15 22 8 12 1005.9 1005.9 0.0
22/10:30am 17.9 13.5 4.5 41 6.4 N 17 30 9 16 1006.0 1006.0 0.0
22/10:00am 17.4 12.3 4.3 42 6.2 N 20 32 11 17 1006.4 1006.4 0.0
22/09:30am 15.3 10.9 4.9 50 4.9 NNW 17 30 9 16 1007.2 1007.2 0.0
22/09:00am 14.4 10.8 5.0 53 4.4 N 13 22 7 12 1007.6 1007.6 2.2
22/08:30am 13.5 8.7 4.9 56 4.0 NNW 19 30 10 16 1007.6 1007.6 2.2
22/08:00am 12.9 7.9 4.4 56 3.9 NNW 20 33 11 18 1007.8 1007.8 2.2
22/07:30am 12.4 8.4 4.8 60 3.5 NNW 15 24 8 13 1007.5 1007.5 2.2
22/07:00am 11.5 7.9 5.2 65 2.9 NNW 13 22 7 12 1007.3 1007.3 2.2
22/06:30am 11.2 7.6 5.1 66 2.8 NNW 13 17 7 9 1007.2 1007.2 2.2
22/06:00am 10.2 6.1 6.1 76 1.9 N 17 22 9 12 1007.0 1007.0 2.2
22/05:30am 9.9 4.8 5.8 75 1.9 NNW 22 28 12 15 1007.0 1007.0 2.2
22/05:00am 9.8 4.8 6.6 80 1.5 NW 22 26 12 14 1007.2 1007.2 2.2
22/04:30am 10.4 6.7 6.1 75 2.0 N 15 24 8 13 1006.9 1006.9 2.2
22/04:00am 10.0 5.6 6.6 79 1.6 N 19 28 10 15 1007.0 1007.0 2.2
22/03:30am 8.8 5.6 6.9 88 0.9 NNW 13 19 7 10 1007.4 1007.4 2.2
22/03:00am 8.2 4.6 6.9 91 0.6 NNW 15 19 8 10 1007.6 1007.6 2.2
22/02:30am 9.2 6.1 7.1 87 1.0 NW 13 17 7 9 1008.0 1008.0 2.2
22/02:00am 9.6 6.1 7.1 84 1.2 NW 15 17 8 9 1008.3 1008.3 2.2
22/01:30am 8.9 4.9 6.5 85 1.1 NW 17 19 9 10 1008.8 1008.8 2.2
22/01:00am 9.7 6.6 7.2 84 1.2 NNW 13 15 7 8 1009.3 1009.3 2.2
22/12:30am 9.7 5.9 7.6 87 1.0 NNW 17 20 9 11 1009.8 1009.8 2.2
22/12:00am 9.7 7.0 7.4 85 1.1 NNW 11 13 6 7 1010.1 1010.1 2.2
 
Date/Time
EDT
Temp
°C
App
Temp
°C
Dew
Point
Rel
Hum
%
Delta-T
°C
Wind Press
QNH
hPa
Press
MSL
hPa
Rain
since 9 am
mm
Dir
 
Spd
km/h
Gust
km/h
Spd
kts
Gust
kts
21/11:30pm 8.5 7.2 6.1 85 1.1 WSW 2 6 1 3 1010.4 1010.4 2.2
21/11:00pm 8.8 7.9 6.0 82 1.3 CALM 0 0 0 0 1010.6 1010.6 2.2
21/10:30pm 8.2 6.1 5.8 85 1.1 E 6 7 3 4 1010.7 1010.7 2.2
21/10:00pm 8.7 7.8 6.1 84 1.2 CALM 0 0 0 0 1010.8 1010.8 2.2
21/09:30pm 9.8 7.8 6.4 79 1.6 S 6 7 3 4 1010.3 1010.3 2.2
21/09:00pm 10.8 8.2 6.3 74 2.1 SE 9 11 5 6 1010.0 1010.0 2.2
21/08:30pm 11.9 8.3 6.7 70 2.5 S 15 19 8 10 1009.8 1009.8 2.2
21/08:00pm 12.4 8.4 6.8 68 2.7 S 17 20 9 11 1009.4 1009.4 2.2
21/07:30pm 13.0 9.0 6.5 64 3.1 SSE 17 22 9 12 1008.9 1008.9 2.2
21/07:00pm 13.6 9.6 6.8 63 3.3 SSE 17 22 9 12 1008.4 1008.4 2.2
21/06:30pm 13.4 8.8 6.5 63 3.3 SSE 20 28 11 15 1008.0 1008.0 2.2
21/06:00pm 14.2 8.8 6.3 59 3.8 SSE 24 30 13 16 1007.6 1007.6 2.2
21/05:30pm 14.1 8.4 6.7 61 3.6 SSE 26 33 14 18 1007.4 1007.4 2.2
21/05:00pm 14.6 9.1 7.5 62 3.5 SE 26 33 14 18 1007.0 1007.0 2.2
21/04:30pm 13.4 8.8 6.6 63 3.3 SE 20 28 11 15 1007.0 1007.0 2.2
21/04:00pm 13.6 10.5 8.9 73 2.4 SE 15 22 8 12 1007.0 1007.0 2.2
21/03:30pm 13.4 9.8 6.8 64 3.2 SSE 15 19 8 10 1007.0 1007.0 2.0
21/03:00pm 14.1 10.3 7.6 65 3.2 SE 17 22 9 12 1006.6 1006.6 2.0
21/02:30pm 14.0 11.0 7.5 65 3.2 SSE 13 19 7 10 1006.6 1006.6 2.0
21/02:00pm 12.3 10.0 7.4 72 2.4 S 9 13 5 7 1006.7 1006.7 2.0
21/01:30pm 12.5 8.9 6.7 68 2.8 SSW 15 20 8 11 1006.6 1006.6 2.0
21/01:00pm 12.5 8.2 8.0 74 2.2 S 20 30 11 16 1006.0 1006.0 2.0
21/12:30pm 12.3 6.9 7.8 74 2.2 S 26 37 14 20 1005.8 1005.8 1.8
21/12:00pm 12.1 7.2 8.3 77 1.9 S 24 32 13 17 1005.4 1005.4 1.8
21/11:30am 11.9 7.6 9.5 85 1.2 S 22 33 12 18 1005.4 1005.4 1.6
21/11:00am 12.1 8.5 10.6 90 0.8 S 20 30 11 16 1005.0 1005.0 1.6
21/10:30am 12.2 7.5 10.5 89 0.9 S 26 33 14 18 1004.5 1004.5 1.0
21/10:00am 12.2 8.1 10.1 87 1.1 S 22 30 12 16 1004.5 1004.5 0.6
21/09:30am 12.9 9.2 10.0 82 1.5 S 20 28 11 15 1004.0 1004.0 0.0
21/09:00am 13.2 10.2 10.5 84 1.4 S 17 24 9 13 1003.6 1003.5 0.6
21/08:30am 13.4 10.9 11.1 86 1.2 S 15 19 8 10 1002.9 1002.8 0.6
21/08:00am 13.2 10.2 10.7 85 1.3 S 17 24 9 13 1002.5 1002.4 0.6
21/07:30am 13.4 11.6 10.9 85 1.3 S 11 13 6 7 1002.1 1002.0 0.6
21/07:00am 13.2 10.1 11.5 89 0.9 SSE 19 26 10 14 1001.6 1001.5 0.6
21/06:46am 13.4 12.0 12.1 92 0.7 SSE 11 15 6 8 1001.4 1001.3 0.6
21/06:30am 13.4 11.2 12.1 92 0.7 SSE 15 19 8 10 1001.3 1001.2 0.6
21/06:19am 13.5 11.2 11.8 89 0.9 S 15 19 8 10 1001.3 1001.2 0.6
21/06:00am 13.6 11.7 11.9 89 0.9 S 13 15 7 8 1000.8 1000.7 0.6
21/05:30am 13.4 12.5 12.5 94 0.5 S 9 11 5 6 1000.4 1000.3 0.6
21/05:00am 13.3 12.8 12.2 93 0.6 WSW 6 7 3 4 1000.2 1000.1 0.6
21/04:53am 13.2 12.6 12.3 94 0.5 WSW 7 9 4 5 1000.1 1000.0 0.6
21/04:30am 13.4 12.9 12.1 92 0.7 S 6 9 3 5 999.7 999.6 0.6
21/04:00am 13.5 12.9 12.4 93 0.6 S 7 9 4 5 999.7 999.6 0.6
21/03:30am 13.6 12.6 12.3 92 0.7 SSE 9 13 5 7 999.9 999.8 0.6
21/03:00am 13.6 12.7 12.5 93 0.6 S 9 11 5 6 999.6 999.5 0.6
21/02:30am 13.6 13.1 12.7 94 0.5 SE 7 9 4 5 999.7 999.6 0.6
21/02:00am 13.1 12.6 12.2 94 0.5 ENE 6 9 3 5 999.7 999.6 0.6
21/01:39am 13.1 12.5 12.2 94 0.5 S 7 7 4 4 999.8 999.7 0.6
21/01:30am 13.1 12.5 12.2 94 0.5 S 7 9 4 5 999.8 999.7 0.6
21/01:00am 13.5 13.9 12.4 93 0.6 SE 2 7 1 4 999.9 999.8 0.6
21/12:30am 13.3 12.7 12.2 93 0.6 SSE 7 9 4 5 1000.2 1000.1 0.6
21/12:00am 13.7 13.2 12.6 93 0.6 SE 7 9 4 5 1000.1 1000.0 0.6
 
Date/Time
EDT
Temp
°C
App
Temp
°C
Dew
Point
Rel
Hum
%
Delta-T
°C
Wind Press
QNH
hPa
Press
MSL
hPa
Rain
since 9 am
mm
Dir
 
Spd
km/h
Gust
km/h
Spd
kts
Gust
kts
20/11:30pm 14.0 14.9 12.9 93 0.6 CALM 0 4 0 2 1000.4 1000.3 0.6
20/11:00pm 13.8 14.3 12.7 93 0.6 SW 2 6 1 3 1000.4 1000.3 0.6
20/10:30pm 13.7 14.5 12.6 93 0.6 CALM 0 0 0 0 1000.3 1000.2 0.6
20/10:00pm 14.1 13.6 12.8 92 0.7 SSE 7 9 4 5 1000.6 1000.5 0.6
20/09:30pm 13.9 13.4 12.8 93 0.6 SE 7 9 4 5 1000.6 1000.5 0.6
20/09:00pm 13.9 13.6 12.6 92 0.7 SSW 6 7 3 4 1000.6 1000.5 0.6
20/08:30pm 14.0 13.7 12.7 92 0.7 S 6 7 3 4 1000.7 1000.6 0.6
20/08:00pm 14.1 14.2 12.6 91 0.8 SE 4 7 2 4 1000.2 1000.1 0.6
20/07:30pm 14.3 13.9 12.9 91 0.8 SE 7 9 4 5 1000.7 1000.6 0.6
20/07:00pm 14.5 13.7 12.9 90 0.9 SE 9 13 5 7 1001.0 1000.9 0.6
20/06:30pm 14.6 13.5 13.0 90 0.9 SSE 11 13 6 7 1001.1 1001.0 0.6
20/06:00pm 14.7 13.8 12.7 88 1.1 SSE 9 13 5 7 1001.3 1001.2 0.6
20/05:30pm 15.1 14.1 13.3 89 1.0 SSE 11 13 6 7 1001.3 1001.2 0.6
20/05:28pm 15.1 14.0 13.1 88 1.1 SSE 11 13 6 7 1001.3 1001.2 0.6
20/05:00pm 15.8 14.2 12.9 83 1.6 SSE 13 19 7 10 1001.4 1001.3 0.4
20/04:30pm 16.2 14.5 12.6 79 2.0 SSE 13 17 7 9 1001.5 1001.4 0.0
20/04:00pm 17.0 15.3 12.3 74 2.6 SSW 13 17 7 9 1001.4 1001.3 0.0
20/03:30pm 16.9 14.8 12.4 75 2.5 SSW 15 19 8 10 1001.6 1001.5 0.0
20/03:00pm 18.0 15.4 10.8 63 3.9 S 15 19 8 10 1002.0 1001.9 0.0
20/02:30pm 17.9 14.7 11.3 65 3.6 S 19 22 10 12 1002.4 1002.3 0.0
20/02:00pm 18.0 15.9 11.0 63 3.8 SSE 13 15 7 8 1002.7 1002.6 0.0
20/01:30pm 17.7 15.3 10.0 60 4.1 SSE 13 15 7 8 1003.4 1003.3 0.0
20/01:00pm 18.3 16.6 9.9 58 4.5 SSE 9 15 5 8 1003.8 1003.7 0.0
20/12:30pm 19.1 17.7 7.1 45 6.1 WNW 4 7 2 4 1004.2 1004.2 0.0
20/12:00pm 19.3 16.9 6.8 44 6.3 N 9 13 5 7 1004.3 1004.3 0.0
20/11:30am 19.1 15.4 4.6 38 7.0 N 13 19 7 10 1004.6 1004.6 0.0
20/11:00am 18.4 15.5 6.6 46 5.9 NNW 11 15 6 8 1004.9 1004.9 0.0
20/10:30am 18.0 15.5 6.6 47 5.7 NNE 9 11 5 6 1004.9 1004.9 0.0
20/10:00am 17.5 15.1 7.2 51 5.2 NNW 9 13 5 7 1005.3 1005.3 0.0
20/09:30am 16.9 13.9 7.8 55 4.6 NNW 13 17 7 9 1005.6 1005.6 0.0
20/09:00am 16.6 13.2 7.7 55 4.5 NNW 15 20 8 11 1005.8 1005.8 0.0
20/08:30am 16.3 13.5 8.5 60 4.0 NNW 13 19 7 10 1006.2 1006.2 0.0
20/08:00am 15.5 12.7 8.4 62 3.6 NNW 13 17 7 9 1006.0 1006.0 0.0
20/07:30am 14.8 12.0 8.7 67 3.1 NNW 13 17 7 9 1006.1 1006.1 0.0
20/07:00am 14.7 11.2 8.6 67 3.1 NW 17 26 9 14 1006.0 1006.0 0.0
20/06:30am 14.4 10.9 8.9 69 2.8 NW 17 24 9 13 1005.7 1005.7 0.0
20/06:00am 14.3 10.3 9.0 70 2.7 NW 20 30 11 16 1005.5 1005.5 0.0
20/05:30am 14.2 11.5 9.1 71 2.6 NNW 13 22 7 12 1005.3 1005.3 0.0
20/05:00am 13.9 10.5 9.2 73 2.4 NW 17 22 9 12 1005.2 1005.2 0.0
20/04:30am 13.9 10.5 9.2 73 2.4 NW 17 24 9 13 1005.5 1005.5 0.0
20/04:00am 14.4 12.4 8.7 68 2.9 N 9 13 5 7 1005.5 1005.5 0.0
20/03:30am 14.3 11.6 8.8 69 2.8 N 13 20 7 11 1005.8 1005.8 0.0
20/03:00am 14.5 12.1 8.6 67 3.0 N 11 15 6 8 1006.0 1006.0 0.0
20/02:30am 14.5 11.8 8.8 68 2.9 N 13 17 7 9 1005.9 1005.9 0.0
20/02:00am 14.7 12.4 9.0 68 2.9 N 11 15 6 8 1006.2 1006.2 0.0
20/01:30am 15.0 12.6 8.7 66 3.2 NW 11 22 6 12 1006.5 1006.5 0.0
20/01:00am 15.1 14.3 9.5 69 2.9 NW 4 7 2 4 1006.7 1006.7 0.0
20/12:30am 15.4 14.0 9.6 68 3.0 NNW 7 13 4 7 1007.5 1007.5 0.0
20/12:00am 15.7 14.0 9.8 68 3.1 NW 9 11 5 6 1008.2 1008.2 0.0
 
Date/Time
EDT
Temp
°C
App
Temp
°C
Dew
Point
Rel
Hum
%
Delta-T
°C
Wind Press
QNH
hPa
Press
MSL
hPa
Rain
since 9 am
mm
Dir
 
Spd
km/h
Gust
km/h
Spd
kts
Gust
kts
19/11:30pm 14.2 14.4 10.6 79 1.9 CALM 0 0 0 0 1008.3 1008.3 0.0
19/11:00pm 13.9 13.0 10.7 81 1.7 NW 6 7 3 4 1008.3 1008.3 0.0
19/10:30pm 14.3 13.4 10.7 79 1.9 NW 6 7 3 4 1008.4 1008.4 0.0
19/10:00pm 14.1 13.1 10.9 81 1.7 NNE 7 9 4 5 1008.5 1008.5 0.0
19/09:30pm 14.2 13.3 10.8 80 1.8 NE 6 7 3 4 1008.7 1008.7 0.0

Other Formats:

Comma delimited format used in spreadsheet applications
http://www.bom.gov.au/fwo/IDT60801/IDT60801.94975.axf

JavaScript Object Notation format (JSON) in row-major order
http://www.bom.gov.au/fwo/IDT60801/IDT60801.94975.json